Terminal Aerodrome Forecast
Issued by NWS Blacksburg, VA

Home | Current Version | Previous Version | Text Only | Print | Product List | Glossary On
Versions: 1 2 3 4 5 6 7 8 9 10 11 12 13 14 15 16 17 18 19 20 21 22 23 24 25 26 27 28 29 30 31 32 33 34 35 36 37 38 39 40 41 42
000
FTUS41 KRNK 010537
TAFLYH
TAF
KLYH 010537Z 0106/0206 00000KT 5SM BR OVC015
     FM010730 00000KT 1/4SM FG OVC001
     FM011300 00000KT 6SM BR OVC009
     FM011600 VRB03KT P6SM BKN025
     FM011800 11005KT P6SM BKN035=

USA.gov is the U.S. government's official web portal to all federal, state and local government web resources and services.